createdAt,value
2022-09-26T00:00:01.526Z,19.2
2022-09-26T00:02:34.289Z,19.2
2022-09-26T00:05:07.000Z,19.3
2022-09-26T00:07:39.785Z,19.3
2022-09-26T00:10:12.173Z,19.3
2022-09-26T00:12:44.609Z,19.3
2022-09-26T00:15:17.404Z,19.3
2022-09-26T00:17:51.567Z,19.4
2022-09-26T00:20:23.834Z,19.4
2022-09-26T00:22:56.158Z,19.4
2022-09-26T00:25:29.242Z,19.4
2022-09-26T00:27:59.972Z,19.4
2022-09-26T00:30:32.027Z,19.3
2022-09-26T00:33:04.219Z,19.3
2022-09-26T00:35:37.064Z,19.4
2022-09-26T00:38:10.550Z,19.3
2022-09-26T00:40:41.795Z,19.4
2022-09-26T00:43:13.401Z,19.4
2022-09-26T00:45:46.243Z,19.4
2022-09-26T00:48:18.494Z,19.4
2022-09-26T00:50:50.702Z,19.4
2022-09-26T00:53:21.802Z,19.4
2022-09-26T00:55:54.467Z,19.3
2022-09-26T00:58:27.249Z,19.3
2022-09-26T01:00:59.546Z,19.3
2022-09-26T01:03:32.092Z,19.3
2022-09-26T01:06:04.413Z,19.2
2022-09-26T01:08:37.001Z,19.2
2022-09-26T01:11:12.535Z,19.3
2022-09-26T01:13:42.094Z,19.3
2022-09-26T01:16:14.773Z,19.3
2022-09-26T01:18:47.126Z,19.3
2022-09-26T01:21:20.768Z,19.3
2022-09-26T01:23:53.354Z,19.3
2022-09-26T01:26:25.709Z,19.3
2022-09-26T01:28:58.967Z,19.3
2022-09-26T01:31:30.831Z,19.3
2022-09-26T01:34:02.752Z,19.3
2022-09-26T01:36:35.093Z,19.2
2022-09-26T01:39:07.716Z,19.3
2022-09-26T01:41:39.971Z,19.3
2022-09-26T01:44:12.280Z,19.4
2022-09-26T01:46:45.662Z,19.4
2022-09-26T01:49:18.166Z,19.3
2022-09-26T01:51:51.982Z,19.3
2022-09-26T01:54:24.590Z,19.3
2022-09-26T01:56:57.115Z,19.4
2022-09-26T01:59:30.946Z,19.3
2022-09-26T02:02:01.741Z,19.4
2022-09-26T02:04:34.122Z,19.3
2022-09-26T02:07:06.876Z,19.4
2022-09-26T02:09:40.158Z,19.4
2022-09-26T02:12:12.259Z,19.3
2022-09-26T02:14:45.807Z,19.3
2022-09-26T02:17:18.527Z,19.2
2022-09-26T02:19:50.684Z,19.2
2022-09-26T02:22:23.309Z,19.1
2022-09-26T02:24:55.828Z,19.3
2022-09-26T02:27:28.492Z,19.2
2022-09-26T02:30:00.563Z,19.2
2022-09-26T02:32:33.526Z,19.2
2022-09-26T02:35:07.156Z,19.2
2022-09-26T02:37:40.602Z,19.2
2022-09-26T02:40:13.412Z,19.2
2022-09-26T02:42:45.567Z,19.3
2022-09-26T02:45:18.436Z,19.2
2022-09-26T02:47:50.273Z,19.2
2022-09-26T02:50:22.375Z,19
2022-09-26T02:52:58.616Z,19.1
2022-09-26T02:55:31.061Z,19.3
2022-09-26T02:58:03.027Z,19.3
2022-09-26T03:00:35.387Z,19.2
2022-09-26T03:03:07.533Z,19.1
2022-09-26T03:05:39.668Z,19
2022-09-26T03:08:11.561Z,19
2022-09-26T03:10:43.611Z,19
2022-09-26T03:13:14.221Z,19
2022-09-26T03:15:47.556Z,19
2022-09-26T03:18:19.878Z,19.1
2022-09-26T03:20:52.551Z,19
2022-09-26T03:23:25.149Z,19.1
2022-09-26T03:25:57.708Z,19.1
2022-09-26T03:28:32.849Z,19
2022-09-26T03:31:02.835Z,19
2022-09-26T03:33:35.392Z,19
2022-09-26T03:36:08.112Z,19.1
2022-09-26T03:38:40.423Z,19.1
2022-09-26T03:41:12.597Z,19.2
2022-09-26T03:43:45.228Z,19.1
2022-09-26T03:46:18.966Z,19.2
2022-09-26T03:48:51.321Z,19.1
2022-09-26T03:51:23.517Z,19.2
2022-09-26T03:53:56.142Z,19.1
2022-09-26T03:56:28.406Z,19.1
2022-09-26T03:59:00.307Z,19
2022-09-26T04:01:32.933Z,19
2022-09-26T04:04:05.029Z,19.1
2022-09-26T04:06:37.841Z,19.1
2022-09-26T04:09:13.208Z,19.1
2022-09-26T04:11:41.936Z,19.1
2022-09-26T04:14:13.733Z,19
2022-09-26T04:16:46.274Z,19.1
2022-09-26T04:19:18.746Z,19.1
2022-09-26T04:21:49.450Z,19
2022-09-26T04:24:21.918Z,19
2022-09-26T04:26:52.679Z,19.1
2022-09-26T04:29:26.049Z,19
2022-09-26T04:32:00.339Z,18.9
2022-09-26T04:34:33.613Z,19
2022-09-26T04:37:07.055Z,19
2022-09-26T04:39:39.348Z,19.1
2022-09-26T04:42:11.830Z,19.1
2022-09-26T04:44:44.352Z,19.1
2022-09-26T04:47:16.716Z,19
2022-09-26T04:49:49.817Z,19
2022-09-26T04:52:21.965Z,19
2022-09-26T04:54:54.268Z,19.1
2022-09-26T04:57:26.570Z,19.2
2022-09-26T04:59:58.756Z,19.3
2022-09-26T05:02:31.210Z,19.2
2022-09-26T05:05:07.339Z,19.2
2022-09-26T05:07:39.500Z,19.2
2022-09-26T05:10:11.884Z,19.1
2022-09-26T05:12:44.484Z,19.2
2022-09-26T05:15:16.920Z,19.2
2022-09-26T05:17:50.738Z,19.3
2022-09-26T05:20:23.465Z,19.1
2022-09-26T05:22:56.824Z,19.2
2022-09-26T05:25:28.969Z,19.2
2022-09-26T05:28:01.472Z,19.3
2022-09-26T05:30:33.988Z,19.3
2022-09-26T05:33:06.784Z,19.3
2022-09-26T05:35:39.180Z,19.3
2022-09-26T05:38:11.494Z,19.3
2022-09-26T05:40:44.390Z,19.3
2022-09-26T05:43:17.301Z,19.3
2022-09-26T05:45:49.745Z,19.3
2022-09-26T05:48:23.515Z,19.4
2022-09-26T05:50:55.796Z,19.4
2022-09-26T05:53:29.060Z,19.5
2022-09-26T05:56:01.686Z,19.5
2022-09-26T05:58:34.679Z,19.6
2022-09-26T06:01:06.999Z,19.6
2022-09-26T06:03:40.652Z,19.6
2022-09-26T06:06:14.122Z,19.5
2022-09-26T06:08:46.622Z,19.6
2022-09-26T06:11:19.057Z,19.6
2022-09-26T06:13:51.611Z,19.7
2022-09-26T06:16:24.353Z,19.7
2022-09-26T06:18:56.988Z,19.8
2022-09-26T06:21:29.539Z,19.8
2022-09-26T06:24:02.065Z,19.7
2022-09-26T06:26:34.848Z,19.8
2022-09-26T06:29:07.645Z,19.8
2022-09-26T06:31:40.379Z,19.9
2022-09-26T06:34:14.042Z,19.9
2022-09-26T06:36:46.282Z,19.9
2022-09-26T06:39:19.033Z,19.9
2022-09-26T06:41:51.563Z,20
2022-09-26T06:44:24.255Z,20
2022-09-26T06:46:56.863Z,20
2022-09-26T06:49:29.753Z,20.1
2022-09-26T06:52:02.487Z,20.2
2022-09-26T06:54:37.285Z,20.3
2022-09-26T06:57:14.845Z,20.3
2022-09-26T06:59:44.050Z,20.3
2022-09-26T07:02:17.398Z,20.3
2022-09-26T07:04:49.955Z,20.4
2022-09-26T07:07:22.488Z,20.4
2022-09-26T07:09:55.548Z,20.5
2022-09-26T07:12:28.404Z,20.5
2022-09-26T07:15:00.541Z,20.6
2022-09-26T07:17:33.712Z,20.6
2022-09-26T07:20:06.297Z,20.7
2022-09-26T07:22:38.571Z,20.8
2022-09-26T07:25:10.850Z,20.7
2022-09-26T07:27:43.364Z,20.8
2022-09-26T07:30:16.064Z,20.8
2022-09-26T07:32:48.451Z,20.8
2022-09-26T07:35:20.685Z,20.9
2022-09-26T07:37:53.331Z,20.9
2022-09-26T07:40:25.646Z,20.9
2022-09-26T07:43:18.375Z,21
2022-09-26T07:45:32.669Z,21
2022-09-26T07:48:05.252Z,21
2022-09-26T07:50:38.672Z,21
2022-09-26T07:53:11.140Z,21
2022-09-26T07:55:43.291Z,20.9
2022-09-26T07:58:15.897Z,21
2022-09-26T08:00:48.598Z,21.1
2022-09-26T08:03:22.106Z,21.2
2022-09-26T08:05:53.254Z,21.3
2022-09-26T08:08:25.860Z,21.3
2022-09-26T08:11:02.943Z,21.3
2022-09-26T08:13:31.251Z,21.3
2022-09-26T08:16:05.238Z,21.2
2022-09-26T08:18:38.019Z,21.2
2022-09-26T08:21:14.692Z,21.4
2022-09-26T08:23:47.222Z,21.4
2022-09-26T08:26:19.834Z,21.5
2022-09-26T08:28:51.848Z,21.5
2022-09-26T08:31:24.502Z,21.6
2022-09-26T08:33:57.259Z,21.6
2022-09-26T08:36:29.466Z,21.6
2022-09-26T08:39:02.164Z,21.7
2022-09-26T08:41:34.747Z,21.8
2022-09-26T08:44:06.861Z,21.7
2022-09-26T08:46:39.431Z,21.8
2022-09-26T08:49:10.840Z,21.9
2022-09-26T08:51:45.229Z,21.9
2022-09-26T08:54:17.286Z,22
2022-09-26T08:56:49.158Z,22.1
2022-09-26T08:59:20.402Z,22.3
2022-09-26T09:01:53.979Z,22.3
2022-09-26T09:04:26.313Z,22.4
2022-09-26T09:06:59.841Z,22.5
2022-09-26T09:09:32.238Z,22.5
2022-09-26T09:12:04.917Z,22.6
2022-09-26T09:14:37.403Z,22.6
2022-09-26T09:17:09.940Z,22.6
2022-09-26T09:19:42.628Z,22.7
2022-09-26T09:22:15.021Z,22.8
2022-09-26T09:24:47.751Z,22.7
2022-09-26T09:29:52.349Z,22.9
2022-09-26T09:32:24.860Z,22.9
2022-09-26T09:34:57.463Z,23
2022-09-26T09:37:29.658Z,23
2022-09-26T09:40:01.776Z,23.1
2022-09-26T09:42:34.264Z,23
2022-09-26T09:45:06.862Z,23.1
2022-09-26T09:47:39.411Z,23
2022-09-26T09:50:11.686Z,23
2022-09-26T09:52:44.023Z,22.9
2022-09-26T09:55:16.618Z,22.9
2022-09-26T09:57:48.952Z,22.8
2022-09-26T10:00:21.443Z,23
2022-09-26T10:02:54.143Z,23
2022-09-26T10:05:26.398Z,23.1
2022-09-26T10:07:59.286Z,23
2022-09-26T10:10:32.026Z,23.1
2022-09-26T10:13:04.330Z,23.2
2022-09-26T10:15:38.801Z,23.2
2022-09-26T10:18:30.049Z,23.2
2022-09-26T10:20:47.334Z,23.3
2022-09-26T10:23:19.442Z,23.3
2022-09-26T10:25:49.676Z,23.4
2022-09-26T10:28:21.480Z,23.3
2022-09-26T10:30:54.278Z,23.3
2022-09-26T10:33:30.584Z,23.4
2022-09-26T10:36:02.886Z,23.4
2022-09-26T10:38:35.758Z,23.5
2022-09-26T10:41:08.212Z,23.6
2022-09-26T10:43:40.205Z,23.7
2022-09-26T10:46:12.371Z,23.8
2022-09-26T10:48:43.461Z,23.8
2022-09-26T10:51:13.731Z,23.9
2022-09-26T10:53:48.497Z,23.9
2022-09-26T10:56:20.940Z,24
2022-09-26T10:58:51.775Z,24.1
2022-09-26T11:01:23.814Z,24.2
2022-09-26T11:03:56.849Z,24.3
2022-09-26T11:06:29.190Z,24.5
2022-09-26T11:09:00.703Z,24.5
2022-09-26T11:11:32.828Z,24.6
2022-09-26T11:14:05.426Z,24.6
2022-09-26T11:16:38.298Z,24.5
2022-09-26T11:19:10.388Z,24.6
2022-09-26T11:21:43.545Z,24.6
2022-09-26T11:24:16.525Z,24.5
2022-09-26T11:26:49.561Z,24.5
2022-09-26T11:29:21.599Z,24.5
2022-09-26T11:31:56.046Z,24.5
2022-09-26T11:34:25.868Z,24.5
2022-09-26T11:36:59.329Z,24.4
2022-09-26T11:39:31.455Z,24.3
2022-09-26T11:42:03.344Z,24.2
2022-09-26T11:44:36.641Z,24.3
2022-09-26T11:47:09.982Z,24.2
2022-09-26T11:49:40.991Z,24.2
2022-09-26T11:52:13.336Z,24.3
2022-09-26T11:54:45.463Z,24.2
2022-09-26T11:57:17.774Z,24.2
2022-09-26T11:59:48.391Z,24.2
2022-09-26T12:02:20.206Z,24.1
2022-09-26T12:04:52.727Z,24.1
2022-09-26T12:07:24.966Z,24.1
2022-09-26T12:10:00.149Z,24.1
2022-09-26T12:12:35.934Z,24.1
2022-09-26T12:15:05.250Z,24.1
2022-09-26T12:17:36.423Z,24
2022-09-26T12:20:09.065Z,24
2022-09-26T12:22:42.386Z,23.9
2022-09-26T12:25:19.361Z,23.9
2022-09-26T12:27:47.569Z,23.8
2022-09-26T12:30:19.939Z,23.7
2022-09-26T12:32:51.841Z,23.6
2022-09-26T12:35:23.295Z,23.5
2022-09-26T12:37:55.500Z,23.5
2022-09-26T12:40:27.667Z,23.3
2022-09-26T12:42:59.244Z,23.2
2022-09-26T12:45:29.759Z,23.3
2022-09-26T12:48:01.500Z,23.2
2022-09-26T12:50:33.061Z,23.2
2022-09-26T12:53:04.467Z,23.2
2022-09-26T12:55:36.343Z,23.1
2022-09-26T12:58:09.508Z,23.1
2022-09-26T13:00:40.814Z,23.1
2022-09-26T13:03:14.001Z,23.1
2022-09-26T13:05:46.299Z,23
2022-09-26T13:08:17.404Z,23.1
2022-09-26T13:10:49.315Z,23.1
2022-09-26T13:13:21.790Z,23.1
2022-09-26T13:15:52.841Z,23
2022-09-26T13:18:28.979Z,22.9
2022-09-26T13:21:00.006Z,23
2022-09-26T13:23:31.989Z,23
2022-09-26T13:26:04.491Z,22.9
2022-09-26T13:28:36.307Z,23
2022-09-26T13:31:09.073Z,23
2022-09-26T13:33:41.567Z,22.9
2022-09-26T13:36:14.092Z,22.9
2022-09-26T13:38:46.819Z,22.8
2022-09-26T13:41:19.552Z,22.8
2022-09-26T13:43:51.540Z,22.7
2022-09-26T13:46:24.190Z,22.8
2022-09-26T13:48:57.114Z,22.9
2022-09-26T13:51:27.659Z,22.8
2022-09-26T13:54:00.643Z,22.8
2022-09-26T13:56:33.121Z,22.8
2022-09-26T13:59:05.244Z,22.6
2022-09-26T14:01:37.913Z,22.7
2022-09-26T14:04:10.119Z,22.6
2022-09-26T14:06:42.677Z,22.5
2022-09-26T14:09:14.950Z,22.5
2022-09-26T14:11:54.359Z,22.5
2022-09-26T14:14:27.160Z,22.6
2022-09-26T14:17:02.529Z,22.7
2022-09-26T14:19:35.407Z,22.5
2022-09-26T14:22:08.788Z,22.4
2022-09-26T14:24:43.479Z,22.3
2022-09-26T14:27:15.765Z,22.2
2022-09-26T14:29:47.926Z,22
2022-09-26T14:32:20.145Z,22
2022-09-26T14:34:52.495Z,22
2022-09-26T14:37:24.976Z,21.7
2022-09-26T14:39:57.407Z,21.9
2022-09-26T14:42:29.953Z,21.7
2022-09-26T14:45:02.054Z,21.6
2022-09-26T14:47:34.494Z,21.5
2022-09-26T14:50:07.180Z,21.5
2022-09-26T14:52:39.415Z,21.7
2022-09-26T14:55:13.658Z,21.6
2022-09-26T14:57:48.052Z,21.6
2022-09-26T15:00:21.266Z,21.5
2022-09-26T15:02:55.486Z,21.6
2022-09-26T15:05:25.780Z,21.8
2022-09-26T15:07:57.588Z,21.8
2022-09-26T15:10:29.223Z,21.7
2022-09-26T15:13:01.050Z,21.6
2022-09-26T15:15:33.094Z,21.7
2022-09-26T15:18:05.325Z,21.5
2022-09-26T15:20:38.021Z,21.6
2022-09-26T15:23:09.887Z,21.5
2022-09-26T15:25:40.621Z,21.6
2022-09-26T15:28:12.661Z,21.5
2022-09-26T15:30:45.150Z,21.5
2022-09-26T15:33:17.692Z,21.4
2022-09-26T15:35:50.026Z,21.4
2022-09-26T15:38:22.705Z,21.3
2022-09-26T15:40:56.878Z,21.2
2022-09-26T15:43:28.738Z,21.1
2022-09-26T15:46:03.529Z,21.1
2022-09-26T15:48:32.859Z,21
2022-09-26T15:51:04.930Z,21.1
2022-09-26T15:53:38.210Z,20.9
2022-09-26T15:56:09.605Z,20.9
2022-09-26T15:58:41.221Z,20.9
2022-09-26T16:01:13.716Z,21
2022-09-26T16:03:45.692Z,21
2022-09-26T16:06:18.352Z,21
2022-09-26T16:08:51.834Z,21
2022-09-26T16:11:23.995Z,21
2022-09-26T16:13:57.922Z,20.9
2022-09-26T16:16:30.446Z,20.9
2022-09-26T16:19:02.860Z,20.9
2022-09-26T16:21:35.104Z,20.9
2022-09-26T16:24:07.158Z,20.9
2022-09-26T16:26:39.012Z,20.9
2022-09-26T16:29:11.136Z,20.7
2022-09-26T16:31:44.105Z,20.7
2022-09-26T16:34:17.441Z,20.7
2022-09-26T16:36:49.948Z,20.7
2022-09-26T16:39:23.341Z,20.5
2022-09-26T16:42:03.032Z,20.4
2022-09-26T16:44:34.790Z,20.2
2022-09-26T16:47:02.503Z,20.3
2022-09-26T16:49:34.995Z,20.4
2022-09-26T16:52:08.154Z,20.2
2022-09-26T16:54:42.107Z,20.3
2022-09-26T16:57:14.363Z,20.1
2022-09-26T16:59:47.114Z,20
2022-09-26T17:02:19.680Z,20.1
2022-09-26T17:04:52.009Z,20
2022-09-26T17:07:24.226Z,20.1
2022-09-26T17:09:56.873Z,20
2022-09-26T17:12:29.083Z,20
2022-09-26T17:15:01.556Z,20
2022-09-26T17:17:33.972Z,20
2022-09-26T17:20:06.374Z,20
2022-09-26T17:22:38.968Z,19.9
2022-09-26T17:25:11.091Z,19.9
2022-09-26T17:27:43.796Z,19.9
2022-09-26T17:30:17.544Z,19.9
2022-09-26T17:32:50.042Z,19.8
2022-09-26T17:35:22.166Z,19.9
2022-09-26T17:37:54.492Z,19.9
2022-09-26T17:40:27.015Z,19.8
2022-09-26T17:42:59.800Z,19.8
2022-09-26T17:45:32.172Z,19.8
2022-09-26T17:48:04.727Z,19.8
2022-09-26T17:50:37.323Z,19.7
2022-09-26T17:53:09.825Z,19.8
2022-09-26T17:55:42.048Z,19.8
2022-09-26T17:58:15.269Z,19.7
2022-09-26T18:00:47.734Z,19.6
2022-09-26T18:03:21.500Z,19.6
2022-09-26T18:05:54.016Z,19.7
2022-09-26T18:08:26.901Z,19.7
2022-09-26T18:10:59.359Z,19.7
2022-09-26T18:13:31.991Z,19.7
2022-09-26T18:16:04.665Z,19.7
2022-09-26T18:18:35.536Z,19.7
2022-09-26T18:21:08.139Z,19.7
2022-09-26T18:23:40.826Z,19.6
2022-09-26T18:26:15.505Z,19.6
2022-09-26T18:28:47.883Z,19.5
2022-09-26T18:31:24.883Z,19.5
2022-09-26T18:33:57.509Z,19.3
2022-09-26T18:36:30.063Z,19.3
2022-09-26T18:39:01.736Z,19.3
2022-09-26T18:41:33.974Z,19.3
2022-09-26T18:44:06.478Z,19.4
2022-09-26T18:46:39.658Z,19.3
2022-09-26T18:49:11.711Z,19.4
2022-09-26T18:51:44.480Z,19.3
2022-09-26T18:54:17.669Z,19.3
2022-09-26T18:56:50.030Z,19.4
2022-09-26T18:59:25.653Z,19.3
2022-09-26T19:01:54.529Z,19.3
2022-09-26T19:04:26.306Z,19.3
2022-09-26T19:06:58.831Z,19.2
2022-09-26T19:09:30.971Z,19.2
2022-09-26T19:12:03.876Z,19.2
2022-09-26T19:14:37.115Z,19.1
2022-09-26T19:17:09.780Z,19.2
2022-09-26T19:19:41.927Z,19.1
2022-09-26T19:22:13.889Z,19.2
2022-09-26T19:24:46.278Z,19.2
2022-09-26T19:27:18.741Z,19.3
2022-09-26T19:29:52.193Z,19.2
2022-09-26T19:32:24.384Z,19.1
2022-09-26T19:34:56.721Z,19.2
2022-09-26T19:37:29.456Z,19.3
2022-09-26T19:40:01.786Z,19.3
2022-09-26T19:42:38.195Z,19.4
2022-09-26T19:45:10.504Z,19.4
2022-09-26T19:47:41.362Z,19.4
2022-09-26T19:50:13.763Z,19.3
2022-09-26T19:52:50.222Z,19.4
2022-09-26T19:55:22.875Z,19.4
2022-09-26T19:57:57.383Z,19.2
2022-09-26T20:00:28.674Z,19.1
2022-09-26T20:03:02.974Z,19.1
2022-09-26T20:05:34.712Z,19
2022-09-26T20:08:05.788Z,19
2022-09-26T20:10:41.391Z,19.1
2022-09-26T20:13:16.570Z,19.1
2022-09-26T20:15:50.551Z,19.1
2022-09-26T20:18:22.751Z,19.1
2022-09-26T20:20:55.020Z,19.2
2022-09-26T20:23:27.408Z,19.1
2022-09-26T20:26:00.045Z,19.1
2022-09-26T20:28:32.435Z,19.1
2022-09-26T20:31:05.230Z,19.1
2022-09-26T20:33:37.939Z,19
2022-09-26T20:36:09.983Z,18.9
2022-09-26T20:38:41.986Z,18.9
2022-09-26T20:41:14.731Z,19
2022-09-26T20:43:46.846Z,19
2022-09-26T20:46:19.938Z,18.9
2022-09-26T20:48:52.404Z,19
2022-09-26T20:51:24.887Z,19
2022-09-26T20:53:57.261Z,19.1
2022-09-26T20:56:29.950Z,19
2022-09-26T20:59:02.651Z,19
2022-09-26T21:01:37.258Z,19
2022-09-26T21:04:09.955Z,19
2022-09-26T21:06:42.283Z,19.1
2022-09-26T21:09:14.534Z,19
2022-09-26T21:11:46.798Z,19.1
2022-09-26T21:14:19.566Z,19
2022-09-26T21:16:51.530Z,19
2022-09-26T21:19:23.860Z,19.1
2022-09-26T21:21:56.578Z,19.1
2022-09-26T21:24:29.000Z,18.9
2022-09-26T21:27:01.369Z,19
2022-09-26T21:29:33.876Z,19
2022-09-26T21:32:06.465Z,19
2022-09-26T21:34:39.216Z,19
2022-09-26T21:37:11.531Z,19
2022-09-26T21:39:44.042Z,18.9
2022-09-26T21:42:16.667Z,18.9
2022-09-26T21:44:49.943Z,18.9
2022-09-26T21:47:22.417Z,18.9
2022-09-26T21:49:54.394Z,19
2022-09-26T21:52:26.359Z,19
2022-09-26T21:54:58.750Z,18.9
2022-09-26T21:57:30.795Z,19
2022-09-26T22:00:02.778Z,19
2022-09-26T22:02:35.233Z,19
2022-09-26T22:05:07.554Z,19
2022-09-26T22:07:39.589Z,19
2022-09-26T22:10:12.202Z,18.9
2022-09-26T22:12:44.510Z,18.9
2022-09-26T22:15:15.552Z,18.9
2022-09-26T22:17:47.334Z,18.8
2022-09-26T22:20:19.487Z,18.8
2022-09-26T22:22:53.318Z,18.8
2022-09-26T22:25:25.263Z,18.8
2022-09-26T22:27:58.221Z,18.9
2022-09-26T22:30:30.368Z,18.9
2022-09-26T22:33:02.623Z,18.8
2022-09-26T22:35:35.129Z,18.8
2022-09-26T22:38:07.632Z,18.9
2022-09-26T22:40:40.006Z,18.8
2022-09-26T22:43:11.696Z,18.7
2022-09-26T22:45:43.635Z,18.7
2022-09-26T22:48:15.951Z,18.5
2022-09-26T22:50:48.301Z,18.5
2022-09-26T22:53:20.370Z,18.4
2022-09-26T22:55:52.878Z,18.4
2022-09-26T22:58:24.873Z,18.4
2022-09-26T23:00:57.492Z,18.4
2022-09-26T23:03:29.736Z,18.5
2022-09-26T23:06:02.086Z,18.5
2022-09-26T23:08:34.222Z,18.5
2022-09-26T23:11:06.527Z,18.5
2022-09-26T23:13:39.326Z,18.5
2022-09-26T23:16:11.626Z,18.5
2022-09-26T23:18:44.182Z,18.5
2022-09-26T23:21:16.756Z,18.5
2022-09-26T23:23:49.384Z,18.4
2022-09-26T23:26:21.644Z,18.5
2022-09-26T23:28:54.124Z,18.5
2022-09-26T23:31:26.988Z,18.5
2022-09-26T23:33:59.404Z,18.5
2022-09-26T23:36:31.909Z,18.4
2022-09-26T23:39:04.469Z,18.3
2022-09-26T23:41:36.937Z,18.3
2022-09-26T23:44:09.623Z,18.3
2022-09-26T23:46:42.152Z,18.3
2022-09-26T23:49:14.593Z,18.2
2022-09-26T23:51:47.172Z,18.2
2022-09-26T23:54:19.709Z,18.2
2022-09-26T23:56:52.302Z,18.3
2022-09-26T23:59:24.750Z,18.3
